< Typhoon 197205 1972 Season Typhoon 197207 >
Typhoon 197206 (PHYLLIS)
General InformationTrack Information on Google Maps || Disaster Info.ResourceGoogle EarthGE AnimationAtom FeedGeoJSON
Detalied Best Track (Time Zone = UTC)
Year Month Day Hour Lat. Long. Pressure (hPa) Wind (kt) Class Image Chart
1972 7 4 18 8.0 161.0 1006 0 2 -- Chart
1972 7 5 00 8.0 161.0 1006 0 2 -- Chart
1972 7 5 06 8.0 161.0 1006 0 2 -- Chart
1972 7 5 12 7.0 161.0 1008 0 2 -- Chart
1972 7 5 18 7.0 161.0 1006 0 2 -- Chart
1972 7 6 00 7.0 161.0 1006 0 2 -- Chart
1972 7 6 06 8.0 160.0 1004 0 2 -- Chart
1972 7 6 12 8.0 158.0 1004 0 2 -- Chart
1972 7 6 18 8.5 157.0 1004 0 2 -- Chart
1972 7 7 00 9.0 156.3 1004 0 9 -- Chart
1972 7 7 06 9.3 155.9 1000 0 9 -- Chart
1972 7 7 12 9.5 155.5 1000 0 9 -- Chart
1972 7 7 18 9.9 155.4 1000 0 9 -- Chart
1972 7 8 00 10.4 155.3 996 0 9 -- Chart
1972 7 8 06 10.9 154.9 994 0 9 -- Chart
1972 7 8 12 11.3 154.8 992 0 9 -- Chart
1972 7 8 18 11.7 155.1 990 0 9 -- Chart
1972 7 9 00 12.4 154.6 990 0 9 -- Chart
1972 7 9 06 13.0 154.5 992 0 9 -- Chart
1972 7 9 12 13.2 154.4 985 0 9 -- Chart
1972 7 9 18 13.2 154.3 980 0 9 -- Chart
1972 7 10 00 13.2 154.2 970 0 9 -- Chart
1972 7 10 06 13.4 154.1 960 0 9 -- Chart
1972 7 10 12 13.6 153.9 945 0 9 -- Chart
1972 7 10 18 13.8 153.9 945 0 9 -- Chart
1972 7 11 00 14.2 154.1 950 0 9 -- Chart
1972 7 11 06 15.2 153.9 950 0 9 -- Chart
1972 7 11 12 16.0 153.8 955 0 9 -- Chart
1972 7 11 18 17.0 153.3 960 0 9 -- Chart
1972 7 12 00 18.1 152.8 965 0 9 -- Chart
1972 7 12 06 19.5 151.5 965 0 9 -- Chart
1972 7 12 12 20.6 149.6 965 0 9 -- Chart
1972 7 12 18 21.8 147.5 965 0 9 -- Chart
1972 7 13 00 22.6 146.3 965 0 9 -- Chart
1972 7 13 06 23.7 144.6 950 0 9 -- Chart
1972 7 13 12 24.7 143.2 950 0 9 -- Chart
1972 7 13 18 25.6 141.9 960 0 9 -- Chart
1972 7 14 00 27.2 140.2 970 0 9 -- Chart
1972 7 14 06 28.5 139.7 975 0 9 -- Chart
1972 7 14 12 29.5 138.5 980 0 9 -- Chart
1972 7 14 18 30.3 137.9 980 0 9 -- Chart
1972 7 15 00 31.3 137.5 985 0 9 -- Chart
1972 7 15 06 33.3 137.5 985 0 9 -- Chart
1972 7 15 12 35.3 136.9 990 0 9 -- Chart
Japan Meteorological Agency Best Track Data | Correction Date : 1989-06-01
< Typhoon 197205 1972 Season Typhoon 197207 >

Help